Time;durP1;ratioP1;P1;durP2;ratioP2;P2;SDS_P1;SDS_P2;PMS_P1;PMS_P2;Temp;Humidity;BMP_temperature;BMP_pressure;BME280_temperature;BME280_humidity;BME280_pressure;Samples;Min_cycle;Max_cycle;Signal;HPM_P1;HPM_P2
2021/11/01 00:00:41;;;;;;;1.25;0.60;;;19.50;67.80;;;;;;2276781;55;21037;-66
2021/11/01 00:03:07;;;;;;;2.12;0.60;;;19.50;67.80;;;;;;2281602;55;21023;-67
2021/11/01 00:05:34;;;;;;;2.80;0.50;;;19.50;67.90;;;;;;2345864;55;21607;-66
2021/11/01 00:08:02;;;;;;;1.70;0.60;;;19.50;68.10;;;;;;2270183;55;20964;-66
2021/11/01 00:10:29;;;;;;;3.05;0.77;;;19.40;68.10;;;;;;2505223;55;21030;-65
2021/11/01 00:12:56;;;;;;;1.80;0.60;;;19.40;68.20;;;;;;2272681;55;20938;-66
2021/11/01 00:15:23;;;;;;;1.58;0.70;;;19.40;68.20;;;;;;2436043;55;21515;-68
2021/11/01 00:17:50;;;;;;;3.22;0.60;;;19.30;68.20;;;;;;2283164;55;20957;-66
2021/11/01 00:20:18;;;;;;;1.45;0.50;;;19.30;68.30;;;;;;2268979;55;21520;-65
2021/11/01 00:22:48;;;;;;;2.75;0.70;;;19.20;68.40;;;;;;2267599;55;21039;-68
2021/11/01 00:25:15;;;;;;;1.42;0.80;;;19.20;68.40;;;;;;2267434;55;20956;-69
2021/11/01 00:27:42;;;;;;;1.75;0.75;;;19.10;68.50;;;;;;2263291;55;21036;-68
2021/11/01 00:30:10;;;;;;;2.22;0.88;;;19.10;68.60;;;;;;2324822;55;21675;-69
2021/11/01 00:32:38;;;;;;;2.55;0.93;;;19.10;68.60;;;;;;2268676;55;21120;-66
2021/11/01 00:35:05;;;;;;;4.97;1.00;;;19.00;68.40;;;;;;2355984;55;21044;-66
2021/11/01 00:37:32;;;;;;;3.37;1.00;;;18.90;68.10;;;;;;2273604;55;21024;-67
2021/11/01 00:40:00;;;;;;;2.03;0.75;;;18.80;67.70;;;;;;2478845;55;20980;-67
2021/11/01 00:42:28;;;;;;;3.28;0.73;;;18.80;67.50;;;;;;2267222;55;20956;-70
2021/11/01 00:44:55;;;;;;;2.15;0.75;;;18.60;67.00;;;;;;2358116;55;21044;-69
2021/11/01 00:47:21;;;;;;;2.03;0.60;;;18.50;66.80;;;;;;2386704;55;21779;-70
2021/11/01 00:49:47;;;;;;;2.87;0.60;;;18.30;66.60;;;;;;2393460;55;21071;-69
2021/11/01 00:52:19;;;;;;;1.55;0.50;;;18.20;66.60;;;;;;2271371;55;21019;-69
2021/11/01 00:54:46;;;;;;;1.27;0.50;;;18.00;66.70;;;;;;2267311;55;20964;-68
2021/11/01 00:57:12;;;;;;;1.55;0.40;;;17.90;67.70;;;;;;2267808;55;20972;-70
2021/11/01 00:59:38;;;;;;;4.72;0.60;;;17.70;67.10;;;;;;2371553;55;21164;-70
2021/11/01 01:02:05;;;;;;;1.55;0.40;;;17.70;67.60;;;;;;2267768;55;21024;-70
2021/11/01 01:04:34;;;;;;;3.05;0.35;;;17.60;67.70;;;;;;2268745;55;21012;-71
2021/11/01 01:07:01;;;;;;;1.30;0.30;;;17.50;67.90;;;;;;2251312;55;21267;-71
2021/11/01 01:09:27;;;;;;;2.65;0.50;;;17.30;68.00;;;;;;2269401;55;20996;-71
2021/11/01 01:11:54;;;;;;;0.73;0.28;;;17.30;68.20;;;;;;2381352;55;20980;-70
2021/11/01 01:14:26;;;;;;;0.57;0.20;;;17.10;68.20;;;;;;2465571;55;20981;-69
2021/11/01 01:16:53;;;;;;;1.92;0.40;;;17.10;68.50;;;;;;2490411;55;21366;-72
2021/11/01 01:19:23;;;;;;;0.62;0.17;;;17.00;68.60;;;;;;2390735;55;21124;-69
2021/11/01 01:24:34;;;;;;;1.83;0.40;;;16.80;68.70;;;;;;2394224;54;21121;-69
2021/11/01 01:27:00;;;;;;;2.90;0.40;;;16.70;68.60;;;;;;2264983;55;20991;-69
2021/11/01 01:29:27;;;;;;;3.70;0.60;;;16.70;68.60;;;;;;2438123;55;21498;-69
2021/11/01 01:31:53;;;;;;;1.17;0.30;;;16.60;68.60;;;;;;2276946;55;21039;-71
2021/11/01 01:34:23;;;;;;;3.00;0.43;;;16.50;68.70;;;;;;2280025;55;21013;-69
2021/11/01 01:36:51;;;;;;;1.20;0.30;;;16.40;68.90;;;;;;2260403;55;21111;-69
2021/11/01 01:39:17;;;;;;;2.00;0.35;;;16.30;69.00;;;;;;2354044;55;20984;-70
2021/11/01 01:41:45;;;;;;;3.60;0.30;;;16.30;69.20;;;;;;2263712;55;21671;-69
2021/11/01 01:44:12;;;;;;;2.35;0.30;;;16.20;69.30;;;;;;2270615;55;21068;-70
2021/11/01 01:46:39;;;;;;;1.27;0.20;;;16.10;69.40;;;;;;2491179;55;20972;-70
2021/11/01 01:49:05;;;;;;;2.85;0.68;;;16.00;69.40;;;;;;2341362;55;21006;-69
2021/11/01 01:51:32;;;;;;;1.83;0.40;;;15.90;69.80;;;;;;2259811;55;21793;-71
2021/11/01 01:53:59;;;;;;;1.60;0.40;;;15.90;69.70;;;;;;2275108;55;21047;-71
2021/11/01 01:56:26;;;;;;;0.43;0.20;;;15.80;69.90;;;;;;2302232;55;20964;-70
2021/11/01 01:59:12;;;;;;;1.48;0.30;;;15.80;70.10;;;;;;2256604;55;20951;-71
2021/11/01 02:01:40;;;;;;;0.98;0.30;;;15.80;70.40;;;;;;2401813;55;21039;-71
2021/11/01 02:04:09;;;;;;;1.67;0.40;;;15.70;70.40;;;;;;2268042;55;21036;-70
2021/11/01 02:06:47;;;;;;;2.33;0.50;;;15.70;70.60;;;;;;2287115;55;21053;-70
2021/11/01 02:09:26;;;;;;;0.60;0.30;;;15.60;70.60;;;;;;2268331;55;20992;-70
2021/11/01 02:12:02;;;;;;;1.70;0.30;;;15.60;70.70;;;;;;2282370;55;21671;-70
2021/11/01 02:14:36;;;;;;;0.60;0.10;;;15.60;70.90;;;;;;2265403;55;21020;-70
2021/11/01 02:17:03;;;;;;;1.15;0.22;;;15.60;71.10;;;;;;2371729;55;21739;-70
2021/11/01 02:19:30;;;;;;;2.65;0.43;;;15.50;71.10;;;;;;2264005;55;21044;-69
2021/11/01 02:22:04;;;;;;;1.10;0.30;;;15.50;71.20;;;;;;2332571;55;21866;-69
2021/11/01 02:24:55;;;;;;;1.37;0.30;;;15.40;71.30;;;;;;2273138;55;21099;-70
2021/11/01 02:27:22;;;;;;;3.53;0.40;;;15.40;71.40;;;;;;2415649;55;20920;-70
2021/11/01 02:29:50;;;;;;;1.85;0.40;;;15.40;71.60;;;;;;2273177;55;20928;-70
2021/11/01 02:32:17;;;;;;;0.80;0.30;;;15.30;71.50;;;;;;2334745;55;20991;-70
2021/11/01 02:34:44;;;;;;;1.37;0.28;;;15.30;71.70;;;;;;2266071;55;20920;-70
2021/11/01 02:37:10;;;;;;;1.37;0.30;;;15.30;71.90;;;;;;2271751;55;21740;-70
2021/11/01 02:39:50;;;;;;;2.97;0.50;;;15.30;72.20;;;;;;2270570;55;21062;-71
2021/11/01 02:42:16;;;;;;;0.85;0.30;;;15.30;72.40;;;;;;2270187;55;21070;-71
2021/11/01 02:45:00;;;;;;;1.60;0.35;;;15.20;72.60;;;;;;2272729;55;21492;-71
2021/11/01 02:47:28;;;;;;;1.75;0.35;;;15.20;72.80;;;;;;2274782;55;20944;-70
2021/11/01 02:49:57;;;;;;;2.15;0.40;;;15.20;73.00;;;;;;2270066;55;21142;-71
2021/11/01 02:52:24;;;;;;;3.45;0.40;;;15.30;73.30;;;;;;2271669;55;21031;-70
2021/11/01 02:54:51;;;;;;;2.37;0.40;;;15.20;73.30;;;;;;2271045;55;20952;-71
2021/11/01 02:57:17;;;;;;;0.40;0.20;;;15.20;73.30;;;;;;2271821;55;21016;-71
2021/11/01 02:59:44;;;;;;;2.30;0.50;;;15.20;73.20;;;;;;2268998;55;20981;-70
2021/11/01 03:02:11;;;;;;;2.83;0.40;;;15.10;73.00;;;;;;2270156;55;21100;-71
2021/11/01 03:04:37;;;;;;;2.37;0.40;;;15.10;73.10;;;;;;2312347;55;21588;-71
2021/11/01 03:07:04;;;;;;;1.55;0.40;;;15.10;73.20;;;;;;2265122;55;21589;-70
2021/11/01 03:09:33;;;;;;;2.20;0.43;;;15.10;73.30;;;;;;2268873;55;20985;-71
2021/11/01 03:12:01;;;;;;;3.03;0.40;;;15.10;73.40;;;;;;2271063;55;21000;-70
2021/11/01 03:14:30;;;;;;;2.45;0.60;;;15.10;73.30;;;;;;2310147;54;22917;-71
2021/11/01 03:16:58;;;;;;;1.80;0.50;;;15.10;73.20;;;;;;2300971;55;21062;-71
2021/11/01 03:19:29;;;;;;;1.33;0.32;;;15.00;73.20;;;;;;2378819;54;22003;-71
2021/11/01 03:22:00;;;;;;;0.52;0.20;;;15.00;73.40;;;;;;2299908;55;21043;-71
2021/11/01 03:24:28;;;;;;;0.90;0.30;;;15.00;73.60;;;;;;2290262;55;21028;-71
2021/11/01 03:26:57;;;;;;;1.42;0.22;;;15.00;73.80;;;;;;2363304;54;21010;-71
2021/11/01 03:29:24;;;;;;;0.82;0.30;;;14.90;73.80;;;;;;2306913;55;21539;-71
2021/11/01 03:31:50;;;;;;;2.05;0.30;;;14.90;73.80;;;;;;2296700;55;21009;-71
2021/11/01 03:34:17;;;;;;;0.95;0.20;;;14.90;73.80;;;;;;2297135;55;21015;-71
2021/11/01 03:36:46;;;;;;;1.65;0.37;;;14.90;73.90;;;;;;2298709;55;21059;-71
2021/11/01 03:39:14;;;;;;;1.42;0.30;;;14.90;73.90;;;;;;2526630;54;21143;-71
2021/11/01 03:41:41;;;;;;;1.08;0.22;;;14.90;73.80;;;;;;2295681;55;21667;-71
2021/11/01 03:44:14;;;;;;;0.85;0.30;;;14.90;73.90;;;;;;2298922;55;20962;-71
2021/11/01 03:46:45;;;;;;;1.58;0.37;;;14.90;73.90;;;;;;2294106;55;20982;-71
2021/11/01 03:49:15;;;;;;;;;;;14.80;73.90;;;;;;2274963;55;21050;-71
2021/11/01 03:54:26;;;;;;;1.70;0.37;;;14.80;73.70;;;;;;2306564;55;21074;-71
2021/11/01 03:56:53;;;;;;;1.27;0.30;;;14.80;73.90;;;;;;2439840;54;21968;-72
2021/11/01 03:59:19;;;;;;;1.52;0.30;;;14.80;74.70;;;;;;2299387;55;20969;-72
2021/11/01 04:01:46;;;;;;;0.95;0.30;;;14.80;74.00;;;;;;2332722;54;21449;-71
2021/11/01 04:04:13;;;;;;;0.82;0.40;;;14.70;74.00;;;;;;2300769;55;20999;-72
2021/11/01 04:06:40;;;;;;;1.95;0.40;;;14.70;74.00;;;;;;2295325;55;21035;-71
2021/11/01 04:09:08;;;;;;;0.93;0.30;;;14.70;74.00;;;;;;2299394;54;21011;-72
2021/11/01 04:11:36;;;;;;;1.70;0.40;;;14.70;74.10;;;;;;2324704;54;21008;-72
2021/11/01 04:14:08;;;;;;;1.58;0.40;;;14.70;74.00;;;;;;2299159;55;21047;-72
2021/11/01 04:16:56;;;;;;;2.85;0.50;;;14.70;73.90;;;;;;2497707;54;20943;-72
2021/11/01 04:22:07;;;;;;;0.60;0.20;;;14.60;73.60;;;;;;2478967;54;20952;-72
2021/11/01 04:24:33;;;;;;;1.75;0.30;;;14.60;73.70;;;;;;2294331;55;20983;-72
2021/11/01 04:27:00;;;;;;;0.17;0.15;;;14.60;73.80;;;;;;2387631;54;21038;-72
2021/11/01 04:29:31;;;;;;;1.08;0.30;;;14.50;73.80;;;;;;2292188;55;20947;-73
2021/11/01 04:32:08;;;;;;;1.02;0.20;;;14.50;74.00;;;;;;2410377;54;21050;-72
2021/11/01 04:34:41;;;;;;;2.40;0.30;;;14.50;74.10;;;;;;2289701;55;20961;-72
2021/11/01 04:37:07;;;;;;;1.58;0.30;;;14.50;74.00;;;;;;2297002;55;21009;-72
2021/11/01 04:54:19;;;;;;;2.10;0.20;;;14.40;73.50;;;;;;2296599;55;20979;-72
2021/11/01 04:56:46;;;;;;;1.25;0.30;;;14.30;73.60;;;;;;2370255;54;21001;-72
2021/11/01 04:59:12;;;;;;;1.77;0.30;;;14.30;73.70;;;;;;2301710;55;21126;-72
2021/11/01 05:01:43;;;;;;;1.12;0.32;;;14.30;73.70;;;;;;2280429;55;21042;-72
2021/11/01 05:04:16;;;;;;;0.95;0.30;;;14.20;73.50;;;;;;2284158;55;20972;-71
2021/11/01 05:06:50;;;;;;;2.33;0.40;;;14.20;73.50;;;;;;2299265;55;20983;-72
2021/11/01 05:09:25;;;;;;;1.27;0.25;;;14.10;73.40;;;;;;2310973;54;21877;-71
2021/11/01 05:12:01;;;;;;;1.23;0.25;;;14.10;73.20;;;;;;2298187;55;21807;-71
2021/11/01 05:18:01;;;;;;;1.77;0.65;;;14.00;73.10;;;;;;2294923;55;20989;-72
2021/11/01 05:20:37;;;;;;;0.93;0.30;;;13.90;72.90;;;;;;2338486;54;20963;-72
2021/11/01 05:23:27;;;;;;;1.40;0.40;;;13.90;73.00;;;;;;2297009;55;21037;-72
2021/11/01 05:31:31;;;;;;;1.12;0.20;;;13.80;72.80;;;;;;2294424;55;20975;-72
2021/11/01 05:34:11;;;;;;;1.08;0.30;;;13.70;72.60;;;;;;2299306;54;20983;-71
2021/11/01 05:36:39;;;;;;;0.55;0.30;;;13.60;72.60;;;;;;2406944;54;20981;-71
2021/11/01 05:39:06;;;;;;;1.17;0.30;;;13.60;72.80;;;;;;2523379;54;21975;-71
2021/11/01 05:41:33;;;;;;;1.30;0.30;;;13.50;72.90;;;;;;2299315;55;21035;-70
2021/11/01 05:43:59;;;;;;;1.25;0.40;;;13.50;73.20;;;;;;2328754;55;22852;-71
2021/11/01 05:46:35;;;;;;;1.05;0.30;;;13.50;73.30;;;;;;2296417;55;21019;-71
2021/11/01 05:49:03;;;;;;;1.98;0.40;;;13.40;73.20;;;;;;2299381;55;21069;-71
2021/11/01 05:51:30;;;;;;;1.92;0.32;;;13.40;73.30;;;;;;2296118;55;20987;-71
2021/11/01 05:53:59;;;;;;;1.55;0.28;;;13.40;73.30;;;;;;2450121;54;21977;-71
2021/11/01 05:59:40;;;;;;;1.08;0.30;;;13.40;73.30;;;;;;2326294;54;21011;-71
2021/11/01 06:03:13;;;;;;;0.85;0.20;;;13.30;73.20;;;;;;2296252;55;21032;-71
2021/11/01 06:06:25;;;;;;;0.60;0.20;;;13.30;73.30;;;;;;2292939;55;21019;-71
2021/11/01 06:09:03;;;;;;;0.70;0.20;;;13.30;73.40;;;;;;2291404;55;21725;-71
2021/11/01 06:14:16;;;;;;;1.52;0.30;;;13.30;73.70;;;;;;2303147;55;21007;-71
2021/11/01 06:16:43;;;;;;;2.17;0.30;;;13.20;73.70;;;;;;2295385;55;20967;-71
2021/11/01 06:19:09;;;;;;;1.87;0.30;;;13.30;74.00;;;;;;2337586;54;21070;-70
2021/11/01 06:21:35;;;;;;;0.40;0.30;;;13.20;74.00;;;;;;2380239;54;21019;-71
2021/11/01 06:24:10;;;;;;;1.35;0.30;;;13.30;74.20;;;;;;2270273;55;20974;-71
2021/11/01 06:26:36;;;;;;;0.73;0.20;;;13.20;74.20;;;;;;2525839;54;21071;-70
2021/11/01 06:29:07;;;;;;;1.90;0.40;;;13.20;74.30;;;;;;2297208;55;21011;-70
2021/11/01 06:31:39;;;;;;;1.40;0.30;;;13.20;74.30;;;;;;2515976;54;20965;-71
2021/11/01 06:40:26;;;;;;;0.65;0.30;;;13.30;73.90;;;;;;2350110;54;20574;-71
2021/11/01 06:43:29;;;;;;;1.02;0.30;;;13.30;74.40;;;;;;2294257;55;21555;-70
2021/11/01 06:52:40;;;;;;;0.85;0.28;;;13.30;75.00;;;;;;2524270;54;20982;-70
2021/11/01 07:14:59;;;;;;;0.93;0.20;;;13.40;74.90;;;;;;2303159;55;21777;-70
2021/11/01 07:17:40;;;;;;;0.62;0.25;;;13.40;74.90;;;;;;2405695;54;20989;-71
2021/11/01 07:21:07;;;;;;;1.12;0.22;;;13.40;74.80;;;;;;2431641;54;20963;-70
2021/11/01 08:35:57;;;;;;;1.23;0.55;;;13.40;74.30;;;;;;2289274;55;21026;-69
2021/11/01 08:48:24;;;;;;;;;;;;;;;;;;;;;
2021/11/01 09:28:39;;;;;;;1.50;0.40;;;14.10;74.50;;;;;;2290305;55;20129;-69
2021/11/01 09:36:53;;;;;;;1.35;0.35;;;14.20;75.40;;;;;;2276256;55;22052;-69
2021/11/01 09:39:46;;;;;;;0.20;0.17;;;14.30;75.20;;;;;;2292599;55;20957;-68
2021/11/01 09:42:14;;;;;;;0.75;0.30;;;14.30;75.00;;;;;;2523121;54;20983;-69
2021/11/01 09:44:40;;;;;;;0.73;0.30;;;14.40;75.10;;;;;;2270332;55;21003;-68
2021/11/01 09:47:12;;;;;;;2.22;0.82;;;14.40;74.90;;;;;;2342523;54;21583;-70
2021/11/01 09:49:42;;;;;;;3.12;1.10;;;14.40;74.70;;;;;;2273536;55;20967;-69
2021/11/01 09:52:09;;;;;;;2.78;0.77;;;14.50;74.70;;;;;;2295761;54;21014;-69
2021/11/01 09:54:37;;;;;;;3.12;0.62;;;14.50;74.70;;;;;;2287612;55;21066;-68
2021/11/01 09:57:08;;;;;;;1.48;0.50;;;14.50;74.40;;;;;;2345252;54;20942;-69
2021/11/01 09:59:37;;;;;;;2.05;0.55;;;14.60;74.30;;;;;;2289262;55;20910;-68
2021/11/01 10:02:09;;;;;;;1.60;0.50;;;14.60;74.20;;;;;;2302640;54;21052;-69
2021/11/01 10:04:35;;;;;;;1.33;0.60;;;14.70;74.20;;;;;;2286081;55;20963;-68
2021/11/01 10:07:24;;;;;;;0.57;0.35;;;14.70;74.30;;;;;;2284343;56;20926;-69
2021/11/01 10:09:56;;;;;;;0.52;0.30;;;14.70;73.70;;;;;;2284408;56;21081;-68
2021/11/01 10:12:26;;;;;;;0.73;0.30;;;14.70;74.00;;;;;;2287919;55;21356;-68
2021/11/01 10:17:33;;;;;;;0.90;0.35;;;14.80;74.00;;;;;;2292605;55;21053;-69
2021/11/01 10:19:59;;;;;;;1.77;0.40;;;14.80;74.00;;;;;;2291888;54;21735;-70
2021/11/01 10:22:32;;;;;;;2.45;0.50;;;14.90;74.20;;;;;;2408080;55;21842;-69
2021/11/01 10:25:02;;;;;;;1.08;0.40;;;14.90;73.40;;;;;;2466169;54;21019;-70
2021/11/01 10:27:33;;;;;;;1.17;0.35;;;14.90;73.60;;;;;;2335101;54;21379;-69
2021/11/01 10:30:04;;;;;;;2.25;0.40;;;14.90;73.60;;;;;;2467662;54;21806;-69
2021/11/01 10:33:06;;;;;;;1.40;0.40;;;14.90;73.40;;;;;;2295539;55;21033;-69
2021/11/01 10:35:40;;;;;;;1.65;0.50;;;14.80;72.90;;;;;;2286073;55;20942;-69
2021/11/01 10:38:37;;;;;;;2.30;0.80;;;14.90;72.90;;;;;;2290227;55;20971;-69
2021/11/01 10:41:15;;;;;;;1.33;0.50;;;15.00;72.30;;;;;;2413428;54;20928;-69
2021/11/01 10:59:25;;;;;;;0.90;0.30;;;15.00;72.70;;;;;;2360243;55;21134;-69
2021/11/01 11:25:33;;;;;;;2.15;0.50;;;15.00;72.30;;;;;;2506243;55;23993;-85
2021/11/01 11:33:56;;;;;;;1.83;0.50;;;15.10;72.40;;;;;;2277443;59;21123;-84
2021/11/01 11:46:57;;;;;;;3.40;1.50;;;15.20;72.50;;;;;;2493719;54;20992;-85
2021/11/01 11:49:28;;;;;;;2.85;0.50;;;15.20;73.40;;;;;;2494358;54;20913;-85
2021/11/01 11:52:04;;;;;;;1.55;0.50;;;15.30;73.20;;;;;;2495570;54;20935;-84
2021/11/01 11:54:36;;;;;;;1.40;0.45;;;15.30;73.30;;;;;;2459591;55;21046;-84
2021/11/01 11:58:10;;;;;;;2.75;0.70;;;15.30;73.60;;;;;;2485088;55;20996;-83
2021/11/01 12:00:39;;;;;;;3.00;0.47;;;15.40;72.10;;;;;;2465751;55;21046;-83
2021/11/01 12:03:26;;;;;;;3.75;0.77;;;15.40;73.70;;;;;;2243590;56;21009;-83
2021/11/01 12:05:59;;;;;;;3.10;0.68;;;15.50;72.80;;;;;;2485152;55;20953;-84
2021/11/01 12:08:34;;;;;;;2.40;0.50;;;15.50;73.90;;;;;;2260367;55;21051;-83
2021/11/01 12:11:31;;;;;;;2.15;0.60;;;15.60;73.90;;;;;;2460375;55;21046;-84
2021/11/01 12:19:06;;;;;;;2.85;0.50;;;15.60;73.60;;;;;;2543602;54;20945;-84
2021/11/01 12:21:38;;;;;;;1.27;0.50;;;15.70;73.20;;;;;;2512813;54;21045;-83
2021/11/01 12:24:21;;;;;;;3.20;0.68;;;15.70;73.10;;;;;;2494123;55;21037;-83
2021/11/01 12:27:03;;;;;;;2.28;0.45;;;15.80;73.00;;;;;;2487519;55;21014;-83
2021/11/01 12:29:36;;;;;;;1.77;0.50;;;15.80;72.90;;;;;;2475781;55;21001;-82
2021/11/01 12:32:09;;;;;;;2.92;0.60;;;15.80;73.40;;;;;;2486115;55;20930;-84
2021/11/01 12:35:05;;;;;;;2.90;0.60;;;15.80;73.30;;;;;;2492628;54;20973;-83
2021/11/01 12:37:34;;;;;;;1.02;0.40;;;15.90;72.60;;;;;;2516452;54;21065;-84
2021/11/01 12:40:31;;;;;;;1.27;0.45;;;15.90;73.40;;;;;;2492063;54;21032;-84
2021/11/01 12:46:18;;;;;;;3.45;0.77;;;16.00;73.30;;;;;;2304574;54;21100;-83
2021/11/01 12:49:13;;;;;;;4.35;0.60;;;16.00;73.70;;;;;;2462125;55;20976;-84
2021/11/01 12:57:35;;;;;;;4.28;1.20;;;16.30;74.30;;;;;;2261231;55;21047;-82
2021/11/01 13:00:02;;;;;;;3.70;1.33;;;16.40;73.70;;;;;;2456685;55;21439;-83
2021/11/01 13:02:40;;;;;;;4.37;1.77;;;16.50;75.80;;;;;;2459441;55;20967;-82
2021/11/01 13:05:16;;;;;;;4.15;1.50;;;16.60;76.30;;;;;;2459695;55;20944;-83
2021/11/01 13:10:53;;;;;;;2.83;0.60;;;16.90;74.90;;;;;;2468584;55;21004;-83
2021/11/01 13:19:17;;;;;;;3.78;0.60;;;17.20;72.90;;;;;;2491214;55;21056;-83
2021/11/01 13:21:57;;;;;;;1.95;0.40;;;17.20;71.70;;;;;;2491571;55;20945;-83
2021/11/01 13:24:44;;;;;;;3.97;0.57;;;17.20;72.50;;;;;;2499019;54;21027;-83
2021/11/01 13:27:35;;;;;;;2.55;0.47;;;17.30;72.00;;;;;;2503736;54;20983;-82
2021/11/01 13:35:35;;;;;;;3.40;0.70;;;17.50;72.10;;;;;;2497332;55;20979;-81
2021/11/01 13:38:03;;;;;;;2.17;0.60;;;17.60;74.10;;;;;;2503680;54;20979;-82
2021/11/01 13:40:37;;;;;;;3.30;0.60;;;17.70;73.50;;;;;;2273253;54;20987;-81
2021/11/01 13:43:04;;;;;;;1.58;0.47;;;17.70;72.60;;;;;;2506314;54;21309;-81
2021/11/01 13:45:32;;;;;;;4.28;0.60;;;17.70;72.10;;;;;;2290810;54;20943;-82
2021/11/01 13:47:59;;;;;;;3.15;0.77;;;17.70;71.40;;;;;;2495312;55;20917;-81
2021/11/01 13:50:35;;;;;;;3.42;0.60;;;17.70;71.30;;;;;;2497714;55;20985;-82
2021/11/01 13:53:08;;;;;;;2.10;0.65;;;17.70;70.40;;;;;;2493276;55;20940;-81
2021/11/01 14:01:38;;;;;;;6.55;1.27;;;17.60;71.10;;;;;;2492413;55;21850;-81
2021/11/01 14:12:30;;;;;;;7.15;0.60;;;17.40;71.00;;;;;;2489448;54;21002;-83
2021/11/01 14:15:06;;;;;;;1.20;0.40;;;17.40;71.00;;;;;;2482706;55;22269;-82
2021/11/01 14:29:19;;;;;;;3.00;0.60;;;17.30;71.30;;;;;;2482426;55;21984;-84
2021/11/01 14:34:49;;;;;;;2.08;0.60;;;17.10;71.40;;;;;;2258332;55;21648;-83
2021/11/01 15:03:54;;;;;;;1.73;0.50;;;16.90;71.90;;;;;;2488140;54;20993;-83
2021/11/01 15:15:06;;;;;;;3.58;0.93;;;16.80;72.10;;;;;;2497138;54;21027;-83
2021/11/01 15:17:49;;;;;;;2.40;0.60;;;16.80;71.80;;;;;;2494902;54;21622;-82
2021/11/01 15:20:35;;;;;;;2.50;1.00;;;16.70;71.10;;;;;;2489342;55;20992;-84
2021/11/01 15:32:44;;;;;;;2.97;1.08;;;16.40;70.30;;;;;;2487969;54;21890;-84
2021/11/01 16:20:26;;;;;;;2.35;0.90;;;14.20;70.50;;;;;;2141881;58;21549;-83
2021/11/01 16:36:08;;;;;;;1.30;0.57;;;14.10;70.60;;;;;;2549622;53;23240;-70
2021/11/01 16:38:43;;;;;;;1.65;0.65;;;14.00;71.40;;;;;;2323622;53;20990;-69
2021/11/01 16:41:10;;;;;;;2.25;0.80;;;13.90;71.50;;;;;;2290583;54;20951;-70
2021/11/01 16:43:37;;;;;;;2.40;0.93;;;13.80;71.60;;;;;;2324424;54;21581;-69
2021/11/01 16:46:03;;;;;;;2.47;0.90;;;13.80;71.80;;;;;;2307747;53;21395;-69
2021/11/01 16:48:30;;;;;;;2.30;0.85;;;13.80;72.00;;;;;;2306549;53;21003;-69
2021/11/01 16:50:58;;;;;;;7.05;3.67;;;13.70;71.90;;;;;;2558936;53;21046;-69
2021/11/01 16:53:25;;;;;;;13.73;7.47;;;13.70;72.10;;;;;;2512059;53;20940;-69
2021/11/01 16:55:52;;;;;;;8.35;4.43;;;13.70;72.20;;;;;;2538321;53;21486;-69
2021/11/01 16:58:24;;;;;;;5.47;2.58;;;13.70;72.30;;;;;;2304866;54;21738;-69
2021/11/01 17:01:03;;;;;;;3.65;1.55;;;13.70;72.40;;;;;;2313135;54;21031;-69
2021/11/01 17:03:49;;;;;;;3.55;1.20;;;13.60;72.30;;;;;;2319701;54;21903;-69
2021/11/01 17:06:34;;;;;;;2.62;0.90;;;13.60;72.30;;;;;;2557119;53;20958;-69
2021/11/01 17:09:40;;;;;;;1.70;0.70;;;13.60;72.40;;;;;;2329187;54;21809;-69
2021/11/01 17:23:27;;;;;;;1.92;0.88;;;13.40;72.30;;;;;;2557902;53;21349;-69
2021/11/01 17:26:03;;;;;;;1.50;0.60;;;13.40;72.20;;;;;;2331157;54;20944;-69
2021/11/01 17:28:48;;;;;;;1.70;0.73;;;13.40;72.20;;;;;;2551780;53;20989;-69
2021/11/01 17:37:06;;;;;;;2.85;1.20;;;13.30;72.20;;;;;;2552021;53;20961;-69
2021/11/01 18:45:45;;;;;;;1.25;0.60;;;12.60;72.80;;;;;;2350604;53;20989;-69
2021/11/01 18:51:27;;;;;;;9.23;4.47;;;12.50;72.80;;;;;;2321982;54;20983;-69
2021/11/01 18:54:21;;;;;;;13.10;5.60;;;12.60;72.90;;;;;;2584447;53;20979;-69
2021/11/01 18:56:57;;;;;;;10.40;5.40;;;12.50;72.80;;;;;;2581061;53;21004;-69
2021/11/01 18:59:26;;;;;;;6.50;2.92;;;12.50;73.00;;;;;;2562688;53;21009;-69
2021/11/01 19:02:18;;;;;;;5.40;2.80;;;12.50;73.10;;;;;;2560088;53;20967;-69
2021/11/01 19:05:01;;;;;;;4.93;2.25;;;12.50;73.20;;;;;;2341893;53;20998;-69
2021/11/01 19:07:42;;;;;;;4.80;2.12;;;12.50;73.20;;;;;;2561107;53;21345;-69
2021/11/01 20:02:51;;;;;;;1.92;0.70;;;12.40;73.10;;;;;;2335540;53;20937;-69
2021/11/01 21:25:58;;;;;;;3.17;0.70;;;12.20;73.60;;;;;;2348265;53;20998;-69
2021/11/01 21:28:30;;;;;;;2.33;0.60;;;12.20;73.70;;;;;;2585187;53;21471;-69
2021/11/01 21:30:59;;;;;;;1.15;0.50;;;12.20;73.70;;;;;;2583215;53;21056;-69
2021/11/01 21:33:31;;;;;;;1.83;0.60;;;12.20;73.80;;;;;;2346669;53;21001;-68
2021/11/01 21:36:05;;;;;;;1.58;0.40;;;12.30;74.00;;;;;;2546183;52;21198;-69
2021/11/01 21:38:32;;;;;;;2.97;0.68;;;12.20;73.90;;;;;;2347085;53;20996;-69
2021/11/01 21:40:59;;;;;;;2.25;0.65;;;12.20;74.00;;;;;;2582712;53;21017;-69
2021/11/01 21:43:25;;;;;;;1.60;0.52;;;12.20;74.10;;;;;;2341466;53;21862;-69
2021/11/01 21:45:51;;;;;;;1.80;0.60;;;12.20;74.30;;;;;;2349137;53;20928;-69
2021/11/01 21:48:18;;;;;;;2.22;0.70;;;12.30;74.50;;;;;;2332213;53;21985;-69
2021/11/01 21:50:45;;;;;;;1.60;0.60;;;12.30;74.60;;;;;;2583192;53;21113;-69
2021/11/01 21:53:16;;;;;;;2.65;0.50;;;12.30;74.70;;;;;;2582683;53;21423;-69
2021/11/01 21:55:42;;;;;;;1.45;0.60;;;12.30;74.80;;;;;;2577019;53;21456;-69
2021/11/01 21:59:50;;;;;;;1.98;0.60;;;12.40;75.00;;;;;;2576368;53;21842;-69
2021/11/01 22:24:07;;;;;;;1.05;0.50;;;12.70;74.50;;;;;;2556383;53;20991;-69
2021/11/01 22:31:57;;;;;;;1.10;0.45;;;12.70;74.30;;;;;;2341143;53;20981;-69
2021/11/01 22:40:24;;;;;;;2.15;0.50;;;12.80;74.30;;;;;;2549571;53;21004;-69
2021/11/01 22:43:11;;;;;;;2.50;0.70;;;12.80;74.20;;;;;;2347661;53;21052;-70
2021/11/01 22:46:07;;;;;;;3.67;0.77;;;12.80;74.00;;;;;;2578491;52;22016;-69
2021/11/01 22:48:42;;;;;;;1.85;0.85;;;12.80;73.70;;;;;;2338215;53;21869;-69
2021/11/01 22:56:49;;;;;;;4.82;1.30;;;12.80;72.90;;;;;;2582698;53;20980;-69
2021/11/01 22:59:17;;;;;;;3.33;1.25;;;12.70;72.80;;;;;;2557563;52;21118;-69
2021/11/01 23:01:55;;;;;;;3.35;1.08;;;12.70;72.90;;;;;;2345006;53;20938;-69
2021/11/01 23:04:50;;;;;;;2.35;1.00;;;12.70;72.80;;;;;;2334505;53;21002;-69
2021/11/01 23:32:03;;;;;;;1.40;0.50;;;12.60;73.60;;;;;;2345356;53;20942;-69
2021/11/01 23:34:29;;;;;;;2.72;0.85;;;12.60;73.70;;;;;;2349135;53;21129;-69
2021/11/01 23:36:56;;;;;;;4.40;0.70;;;12.60;73.70;;;;;;2353030;53;21021;-69
2021/11/01 23:39:23;;;;;;;3.50;0.80;;;12.60;73.80;;;;;;2582784;53;20978;-69
2021/11/01 23:41:52;;;;;;;4.82;1.00;;;12.60;73.80;;;;;;2583777;53;21137;-69
2021/11/01 23:44:19;;;;;;;2.25;0.85;;;12.70;73.90;;;;;;2337662;53;21916;-69
2021/11/01 23:46:46;;;;;;;1.62;0.70;;;12.70;74.00;;;;;;2346713;53;21722;-69
2021/11/01 23:49:12;;;;;;;1.65;0.60;;;12.70;74.00;;;;;;2346587;53;21025;-69
2021/11/01 23:51:38;;;;;;;1.48;0.80;;;12.70;74.00;;;;;;2345525;53;21002;-69
2021/11/01 23:54:25;;;;;;;1.55;0.60;;;12.90;74.10;;;;;;2348208;53;20970;-69
2021/11/01 23:56:52;;;;;;;1.83;0.57;;;12.80;73.90;;;;;;2576144;53;21015;-69
2021/11/01 23:59:18;;;;;;;2.37;0.70;;;12.80;73.80;;;;;;2349914;53;20993;-69
